createdAt,value
2023-04-17T00:00:39.186Z,12.75
2023-04-17T00:03:07.599Z,8.73
2023-04-17T00:05:36.414Z,7.65
2023-04-17T00:08:04.662Z,10.23
2023-04-17T00:10:34.788Z,8.73
2023-04-17T00:13:03.284Z,9.63
2023-04-17T00:15:31.369Z,12.75
2023-04-17T00:17:59.840Z,8.45
2023-04-17T00:20:28.610Z,10.77
2023-04-17T00:22:56.866Z,11.90
2023-04-17T00:25:25.383Z,13.75
2023-04-17T00:27:53.713Z,14.15
2023-04-17T00:30:21.938Z,14.60
2023-04-17T00:32:50.121Z,20.08
2023-04-17T00:35:18.512Z,32.25
2023-04-17T00:37:46.670Z,43.17
2023-04-17T00:40:15.132Z,38.13
2023-04-17T00:42:43.511Z,41.38
2023-04-17T00:45:11.657Z,32.33
2023-04-17T00:47:40.409Z,14.35
2023-04-17T00:50:09.358Z,16.98
2023-04-17T00:52:37.428Z,18.75
2023-04-17T00:55:06.176Z,18.75
2023-04-17T00:57:35.486Z,25.75
2023-04-17T01:00:03.934Z,52.17
2023-04-17T01:02:32.468Z,57.22
2023-04-17T01:05:00.838Z,37.00
2023-04-17T01:07:30.195Z,42.30
2023-04-17T01:09:58.547Z,46.08
2023-04-17T01:12:27.056Z,43.80
2023-04-17T01:14:56.529Z,41.67
2023-04-17T01:17:26.056Z,30.50
2023-04-17T01:19:55.175Z,27.90
2023-04-17T01:22:23.475Z,29.00
2023-04-17T01:24:56.422Z,24.38
2023-04-17T01:27:27.516Z,27.80
2023-04-17T01:29:56.378Z,28.15
2023-04-17T01:32:24.491Z,23.90
2023-04-17T01:34:52.920Z,28.77
2023-04-17T01:37:21.093Z,23.95
2023-04-17T01:39:49.663Z,37.05
2023-04-17T01:42:17.756Z,33.85
2023-04-17T01:44:45.955Z,29.30
2023-04-17T01:47:14.532Z,32.13
2023-04-17T01:49:42.594Z,32.30
2023-04-17T01:52:10.996Z,23.25
2023-04-17T01:54:39.164Z,18.08
2023-04-17T01:57:07.222Z,17.23
2023-04-17T01:59:35.551Z,15.98
2023-04-17T02:02:04.352Z,12.88
2023-04-17T02:04:32.887Z,8.48
2023-04-17T02:07:00.953Z,17.88
2023-04-17T02:09:29.098Z,18.50
2023-04-17T02:11:57.340Z,13.00
2023-04-17T02:14:25.878Z,16.33
2023-04-17T02:16:55.469Z,12.38
2023-04-17T02:19:23.793Z,15.27
2023-04-17T02:21:52.233Z,12.32
2023-04-17T02:24:20.490Z,10.43
2023-04-17T02:26:48.561Z,15.25
2023-04-17T02:29:16.827Z,15.75
2023-04-17T02:31:45.103Z,16.30
2023-04-17T02:34:13.395Z,16.52
2023-04-17T02:36:42.543Z,21.13
2023-04-17T02:39:10.970Z,16.42
2023-04-17T02:41:40.939Z,18.98
2023-04-17T02:44:10.381Z,16.63
2023-04-17T02:46:38.922Z,15.18
2023-04-17T02:49:09.473Z,16.27
2023-04-17T02:51:38.672Z,14.30
2023-04-17T02:54:06.936Z,13.27
2023-04-17T02:56:35.119Z,13.43
2023-04-17T02:59:03.586Z,13.27
2023-04-17T03:01:31.960Z,19.25
2023-04-17T03:04:00.434Z,10.30
2023-04-17T03:06:29.052Z,12.50
2023-04-17T03:08:57.542Z,15.30
2023-04-17T03:11:25.880Z,8.90
2023-04-17T03:13:54.164Z,10.52
2023-04-17T03:16:23.261Z,12.82
2023-04-17T03:18:51.771Z,14.98
2023-04-17T03:21:20.641Z,9.98
2023-04-17T03:23:50.403Z,18.33
2023-04-17T03:26:21.128Z,12.32
2023-04-17T03:28:49.623Z,14.32
2023-04-17T03:31:18.126Z,14.77
2023-04-17T03:33:46.508Z,14.43
2023-04-17T03:36:14.714Z,12.18
2023-04-17T03:38:43.195Z,12.55
2023-04-17T03:41:11.421Z,18.48
2023-04-17T03:43:39.771Z,11.55
2023-04-17T03:46:10.366Z,11.55
2023-04-17T03:48:39.943Z,13.15
2023-04-17T03:51:08.216Z,10.35
2023-04-17T03:53:37.440Z,10.27
2023-04-17T03:58:40.725Z,21.02
2023-04-17T04:01:11.768Z,18.35
2023-04-17T04:03:49.048Z,20.45
2023-04-17T04:06:17.710Z,12.07
2023-04-17T04:08:45.959Z,18.48
2023-04-17T04:11:14.839Z,14.85
2023-04-17T04:13:43.069Z,11.55
2023-04-17T04:16:11.407Z,24.27
2023-04-17T04:18:41.521Z,14.77
2023-04-17T04:21:09.852Z,13.85
2023-04-17T04:23:41.379Z,18.13
2023-04-17T04:26:12.277Z,18.33
2023-04-17T04:28:49.846Z,19.55
2023-04-17T04:31:32.722Z,17.50
2023-04-17T04:34:03.511Z,17.45
2023-04-17T04:36:31.751Z,22.02
2023-04-17T04:39:17.360Z,17.05
2023-04-17T04:41:45.717Z,22.60
2023-04-17T04:44:15.130Z,22.88
2023-04-17T04:46:44.798Z,16.00
2023-04-17T04:49:14.006Z,27.70
2023-04-17T04:51:42.584Z,25.83
2023-04-17T04:54:11.224Z,26.15
2023-04-17T04:56:49.790Z,26.60
2023-04-17T04:59:18.324Z,24.63
2023-04-17T05:01:56.025Z,27.48
2023-04-17T05:04:25.050Z,23.08
2023-04-17T05:06:56.934Z,22.95
2023-04-17T05:09:25.358Z,29.20
2023-04-17T05:11:56.922Z,17.42
2023-04-17T05:14:25.427Z,16.48
2023-04-17T05:16:53.588Z,24.33
2023-04-17T05:19:22.207Z,21.83
2023-04-17T05:22:03.643Z,23.50
2023-04-17T05:24:35.647Z,17.45
2023-04-17T05:27:04.029Z,25.75
2023-04-17T05:29:32.189Z,15.63
2023-04-17T05:32:00.506Z,23.90
2023-04-17T05:34:49.240Z,24.23
2023-04-17T05:37:22.407Z,19.42
2023-04-17T05:39:50.771Z,27.30
2023-04-17T05:42:18.958Z,22.77
2023-04-17T05:44:47.270Z,20.85
2023-04-17T05:47:15.735Z,20.30
2023-04-17T05:49:43.775Z,20.83
2023-04-17T05:52:12.303Z,18.08
2023-04-17T05:57:12.425Z,17.48
2023-04-17T05:59:40.831Z,24.48
2023-04-17T06:02:10.540Z,18.08
2023-04-17T06:04:39.192Z,26.42
2023-04-17T06:07:07.771Z,20.52
2023-04-17T06:09:37.400Z,27.20
2023-04-17T06:12:06.238Z,26.25
2023-04-17T06:14:34.849Z,24.20
2023-04-17T06:17:07.474Z,19.75
2023-04-17T06:19:35.869Z,27.80
2023-04-17T06:22:04.463Z,25.95
2023-04-17T06:24:32.697Z,37.83
2023-04-17T06:27:00.886Z,36.88
2023-04-17T06:29:29.233Z,29.65
2023-04-17T06:31:57.558Z,38.38
2023-04-17T06:34:26.772Z,32.83
2023-04-17T06:36:57.134Z,29.42
2023-04-17T06:39:25.411Z,29.02
2023-04-17T06:41:54.122Z,25.23
2023-04-17T06:44:27.993Z,32.50
2023-04-17T06:46:56.208Z,26.63
2023-04-17T06:49:25.017Z,46.95
2023-04-17T06:51:53.098Z,40.30
2023-04-17T06:54:21.292Z,41.10
2023-04-17T06:56:49.432Z,41.63
2023-04-17T06:59:18.589Z,38.92
2023-04-17T07:01:46.875Z,50.13
2023-04-17T07:04:15.276Z,34.95
2023-04-17T07:06:43.459Z,47.50
2023-04-17T07:09:12.067Z,44.15
2023-04-17T07:11:40.397Z,32.25
2023-04-17T07:14:09.880Z,30.73
2023-04-17T07:16:39.251Z,34.28
2023-04-17T07:19:07.430Z,48.03
2023-04-17T07:21:35.882Z,30.08
2023-04-17T07:24:04.264Z,33.35
2023-04-17T07:26:32.394Z,35.70
2023-04-17T07:29:00.665Z,38.97
2023-04-17T07:31:29.897Z,30.00
2023-04-17T07:33:58.114Z,23.77
2023-04-17T07:36:26.269Z,25.27
2023-04-17T07:38:54.545Z,39.70
2023-04-17T07:41:22.896Z,34.38
2023-04-17T07:43:51.272Z,39.53
2023-04-17T07:46:19.427Z,50.80
2023-04-17T07:48:47.871Z,49.08
2023-04-17T07:51:16.042Z,44.35
2023-04-17T07:53:44.293Z,49.70
2023-04-17T07:56:12.732Z,54.85
2023-04-17T07:58:41.040Z,54.28
2023-04-17T08:01:09.193Z,47.97
2023-04-17T08:03:37.598Z,47.78
2023-04-17T08:06:06.447Z,45.70
2023-04-17T08:08:34.559Z,48.88
2023-04-17T08:11:02.772Z,48.03
2023-04-17T08:13:31.855Z,42.83
2023-04-17T08:15:59.965Z,39.90
2023-04-17T08:18:28.223Z,38.55
2023-04-17T08:20:56.666Z,29.45
2023-04-17T08:23:25.110Z,42.83
2023-04-17T08:25:53.315Z,40.90
2023-04-17T08:28:21.613Z,40.95
2023-04-17T08:30:49.949Z,33.10
2023-04-17T08:33:18.617Z,41.90
2023-04-17T08:35:47.063Z,46.95
2023-04-17T08:38:15.858Z,30.08
2023-04-17T08:40:44.561Z,30.17
2023-04-17T08:43:17.134Z,29.42
2023-04-17T08:45:49.323Z,29.42
2023-04-17T08:50:48.728Z,27.52
2023-04-17T08:53:20.565Z,38.95
2023-04-17T08:55:49.156Z,33.53
2023-04-17T08:58:17.372Z,27.58
2023-04-17T09:00:46.510Z,29.63
2023-04-17T09:03:15.782Z,28.75
2023-04-17T09:05:44.715Z,30.13
2023-04-17T09:08:18.225Z,31.27
2023-04-17T09:10:48.455Z,26.20
2023-04-17T09:13:20.046Z,34.10
2023-04-17T09:16:04.483Z,33.25
2023-04-17T09:18:34.663Z,34.40
2023-04-17T09:21:04.250Z,35.15
2023-04-17T09:23:47.474Z,33.03
2023-04-17T09:26:18.356Z,35.85
2023-04-17T09:29:12.540Z,35.42
2023-04-17T09:31:44.515Z,42.97
2023-04-17T09:34:13.883Z,33.80
2023-04-17T09:36:43.915Z,42.45
2023-04-17T09:39:20.064Z,35.72
2023-04-17T09:41:48.452Z,35.42
2023-04-17T09:44:28.426Z,39.58
2023-04-17T09:46:57.272Z,46.53
2023-04-17T09:49:43.031Z,42.80
2023-04-17T09:52:14.666Z,47.85
2023-04-17T09:54:43.729Z,42.55
2023-04-17T09:57:12.680Z,49.22
2023-04-17T09:59:46.151Z,56.13
2023-04-17T10:02:16.024Z,42.67
2023-04-17T10:04:45.737Z,42.90
2023-04-17T10:07:14.267Z,48.15
2023-04-17T10:09:43.582Z,61.15
2023-04-17T10:12:15.026Z,46.38
2023-04-17T10:14:46.136Z,33.92
2023-04-17T10:17:24.494Z,42.78
2023-04-17T10:19:53.046Z,40.33
2023-04-17T10:22:21.136Z,41.83
2023-04-17T10:24:50.802Z,31.92
2023-04-17T10:27:27.835Z,36.58
2023-04-17T10:30:00.817Z,38.90
2023-04-17T10:32:30.450Z,28.48
2023-04-17T10:35:00.918Z,40.60
2023-04-17T10:37:47.811Z,76.82
2023-04-17T10:40:21.813Z,50.03
2023-04-17T10:43:11.509Z,44.72
2023-04-17T10:46:10.605Z,38.65
2023-04-17T10:48:53.000Z,35.22
2023-04-17T10:51:24.288Z,34.22
2023-04-17T10:53:59.190Z,35.50
2023-04-17T10:56:40.379Z,39.10
2023-04-17T10:59:13.947Z,54.37
2023-04-17T11:01:51.649Z,35.78
2023-04-17T11:04:23.874Z,32.60
2023-04-17T11:06:52.303Z,43.40
2023-04-17T11:09:28.541Z,28.55
2023-04-17T11:12:00.709Z,53.38
2023-04-17T11:14:29.086Z,45.10
2023-04-17T11:16:57.311Z,43.30
2023-04-17T11:19:26.593Z,35.95
2023-04-17T11:21:56.477Z,38.08
2023-04-17T11:24:29.029Z,36.17
2023-04-17T11:26:59.102Z,44.22
2023-04-17T11:29:28.112Z,39.72
2023-04-17T11:31:57.949Z,53.63
2023-04-17T11:34:27.171Z,43.15
2023-04-17T11:36:58.287Z,50.92
2023-04-17T11:39:31.489Z,45.92
2023-04-17T11:42:00.254Z,44.50
2023-04-17T11:44:32.643Z,46.58
2023-04-17T11:47:02.302Z,37.78
2023-04-17T11:49:32.459Z,36.58
2023-04-17T11:52:02.148Z,43.80
2023-04-17T11:54:38.515Z,45.40
2023-04-17T11:57:11.395Z,34.75
2023-04-17T11:59:41.686Z,31.30
2023-04-17T12:02:10.515Z,38.63
2023-04-17T12:04:40.054Z,34.10
2023-04-17T12:07:09.259Z,37.30
2023-04-17T12:09:37.458Z,36.22
2023-04-17T12:12:07.902Z,37.15
2023-04-17T12:14:36.575Z,30.27
2023-04-17T12:17:04.742Z,32.60
2023-04-17T12:19:33.103Z,28.13
2023-04-17T12:22:01.228Z,27.40
2023-04-17T12:24:29.398Z,40.88
2023-04-17T12:26:57.702Z,31.58
2023-04-17T12:29:36.766Z,34.33
2023-04-17T12:32:11.223Z,40.03
2023-04-17T12:34:39.465Z,38.45
2023-04-17T12:37:07.687Z,37.72
2023-04-17T12:39:36.017Z,28.35
2023-04-17T12:42:04.347Z,43.33
2023-04-17T12:44:32.649Z,28.92
2023-04-17T12:47:00.880Z,27.27
2023-04-17T12:49:29.096Z,30.02
2023-04-17T12:51:57.520Z,40.08
2023-04-17T12:54:25.774Z,36.95
2023-04-17T12:56:54.419Z,23.20
2023-04-17T12:59:22.696Z,67.65
2023-04-17T13:01:51.105Z,41.78
2023-04-17T13:04:20.075Z,39.83
2023-04-17T13:06:48.944Z,44.00
2023-04-17T13:09:17.023Z,26.02
2023-04-17T13:11:45.257Z,31.73
2023-04-17T13:14:13.970Z,29.10
2023-04-17T13:16:42.365Z,38.10
2023-04-17T13:19:10.925Z,28.50
2023-04-17T13:21:39.474Z,35.83
2023-04-17T13:24:07.884Z,36.35
2023-04-17T13:26:37.294Z,34.63
2023-04-17T13:29:05.532Z,30.73
2023-04-17T13:31:33.887Z,30.13
2023-04-17T13:34:04.688Z,26.65
2023-04-17T13:36:33.148Z,26.38
2023-04-17T13:39:01.297Z,31.55
2023-04-17T13:41:29.519Z,42.03
2023-04-17T13:43:57.872Z,39.13
2023-04-17T13:46:26.117Z,26.48
2023-04-17T13:48:54.459Z,34.25
2023-04-17T13:51:22.821Z,39.03
2023-04-17T13:53:51.244Z,51.03
2023-04-17T13:56:19.407Z,43.70
2023-04-17T13:58:47.682Z,39.58
2023-04-17T14:01:16.130Z,45.40
2023-04-17T14:03:46.115Z,47.83
2023-04-17T14:06:15.238Z,43.97
2023-04-17T14:08:44.443Z,44.45
2023-04-17T14:11:13.450Z,35.45
2023-04-17T14:13:41.792Z,34.92
2023-04-17T14:16:10.128Z,31.75
2023-04-17T14:18:38.539Z,69.07
2023-04-17T14:21:07.019Z,55.20
2023-04-17T14:23:35.172Z,91.93
2023-04-17T14:26:03.492Z,94.28
2023-04-17T14:28:32.867Z,52.92
2023-04-17T14:31:01.335Z,41.53
2023-04-17T14:33:29.594Z,37.22
2023-04-17T14:35:58.163Z,33.28
2023-04-17T14:38:26.896Z,43.08
2023-04-17T14:40:55.267Z,56.97
2023-04-17T14:43:23.484Z,51.53
2023-04-17T14:45:51.732Z,42.22
2023-04-17T14:48:20.646Z,46.67
2023-04-17T14:50:48.968Z,52.63
2023-04-17T14:53:18.340Z,54.60
2023-04-17T14:55:47.982Z,31.20
2023-04-17T14:58:16.591Z,35.17
2023-04-17T15:00:44.989Z,35.45
2023-04-17T15:03:13.436Z,42.20
2023-04-17T15:05:41.789Z,42.65
2023-04-17T15:08:10.089Z,61.58
2023-04-17T15:10:50.382Z,51.30
2023-04-17T15:13:20.156Z,42.85
2023-04-17T15:15:48.294Z,56.03
2023-04-17T15:18:16.581Z,40.63
2023-04-17T15:20:44.884Z,42.30
2023-04-17T15:23:13.669Z,44.75
2023-04-17T15:25:41.902Z,32.92
2023-04-17T15:28:10.416Z,43.90
2023-04-17T15:30:38.586Z,74.32
2023-04-17T15:33:09.253Z,45.65
2023-04-17T15:35:39.333Z,56.67
2023-04-17T15:38:08.227Z,46.42
2023-04-17T15:40:36.565Z,79.78
2023-04-17T15:43:05.025Z,83.75
2023-04-17T15:45:33.284Z,38.38
2023-04-17T15:48:01.672Z,56.97
2023-04-17T15:50:30.367Z,35.88
2023-04-17T15:52:58.579Z,41.20
2023-04-17T15:55:26.909Z,34.55
2023-04-17T15:57:55.588Z,50.92
2023-04-17T16:00:23.755Z,60.85
2023-04-17T16:02:52.576Z,37.58
2023-04-17T16:05:21.724Z,52.08
2023-04-17T16:07:49.931Z,40.90
2023-04-17T16:10:18.432Z,40.20
2023-04-17T16:12:47.286Z,34.00
2023-04-17T16:15:18.861Z,38.92
2023-04-17T16:20:15.100Z,30.90
2023-04-17T16:22:43.473Z,35.63
2023-04-17T16:25:11.592Z,35.00
2023-04-17T16:27:39.929Z,41.83
2023-04-17T16:30:09.440Z,44.20
2023-04-17T16:32:40.163Z,31.50
2023-04-17T16:35:08.851Z,41.63
2023-04-17T16:37:37.022Z,30.98
2023-04-17T16:40:05.702Z,31.38
2023-04-17T16:42:34.279Z,66.68
2023-04-17T16:45:02.416Z,41.13
2023-04-17T16:47:31.129Z,36.20
2023-04-17T16:49:59.592Z,47.67
2023-04-17T16:52:27.847Z,31.08
2023-04-17T16:54:56.113Z,40.10
2023-04-17T16:57:24.255Z,39.47
2023-04-17T16:59:52.448Z,39.08
2023-04-17T17:02:20.833Z,30.80
2023-04-17T17:04:50.032Z,42.47
2023-04-17T17:07:18.154Z,36.40
2023-04-17T17:09:46.542Z,39.72
2023-04-17T17:12:14.665Z,39.83
2023-04-17T17:14:42.829Z,45.13
2023-04-17T17:17:10.974Z,35.95
2023-04-17T17:19:41.909Z,40.22
2023-04-17T17:22:10.165Z,40.65
2023-04-17T17:24:38.406Z,54.72
2023-04-17T17:27:06.713Z,29.52
2023-04-17T17:29:35.029Z,131.55
2023-04-17T17:32:03.461Z,65.75
2023-04-17T17:34:32.595Z,56.95
2023-04-17T17:37:00.827Z,44.17
2023-04-17T17:39:29.185Z,35.42
2023-04-17T17:41:57.269Z,63.35
2023-04-17T17:44:25.502Z,58.05
2023-04-17T17:46:53.749Z,49.25
2023-04-17T17:49:23.323Z,46.10
2023-04-17T17:51:51.477Z,52.45
2023-04-17T17:54:19.874Z,49.05
2023-04-17T17:56:47.952Z,50.20
2023-04-17T17:59:16.280Z,42.70
2023-04-17T18:01:44.527Z,39.90
2023-04-17T18:04:13.374Z,39.10
2023-04-17T18:06:41.803Z,41.60
2023-04-17T18:09:10.150Z,39.58
2023-04-17T18:11:38.576Z,48.72
2023-04-17T18:14:06.825Z,60.15
2023-04-17T18:16:35.097Z,55.13
2023-04-17T18:19:03.764Z,70.40
2023-04-17T18:21:32.580Z,48.42
2023-04-17T18:24:01.293Z,73.60
2023-04-17T18:26:29.692Z,74.50
2023-04-17T18:28:57.886Z,64.30
2023-04-17T18:31:26.411Z,63.38
2023-04-17T18:33:55.057Z,58.13
2023-04-17T18:36:23.152Z,55.13
2023-04-17T18:38:51.468Z,64.90
2023-04-17T18:41:19.717Z,64.30
2023-04-17T18:43:48.314Z,61.03
2023-04-17T18:46:16.529Z,57.38
2023-04-17T18:48:44.789Z,66.40
2023-04-17T18:51:13.820Z,71.97
2023-04-17T18:53:42.129Z,60.40
2023-04-17T18:56:10.223Z,83.75
2023-04-17T18:58:38.450Z,79.72
2023-04-17T19:01:07.404Z,84.05
2023-04-17T19:03:35.568Z,71.05
2023-04-17T19:06:04.083Z,86.32
2023-04-17T19:08:32.361Z,69.20
2023-04-17T19:11:00.546Z,63.60
2023-04-17T19:13:29.030Z,70.97
2023-04-17T19:15:57.239Z,65.35
2023-04-17T19:18:25.573Z,69.78
2023-04-17T19:20:53.983Z,70.97
2023-04-17T19:23:22.106Z,86.03
2023-04-17T19:25:53.764Z,95.43
2023-04-17T19:28:22.992Z,95.72
2023-04-17T19:30:51.076Z,151.32
2023-04-17T19:33:19.382Z,113.20
2023-04-17T19:35:47.550Z,93.10
2023-04-17T19:38:17.345Z,117.72
2023-04-17T19:41:11.097Z,110.60
2023-04-17T19:43:39.403Z,143.90
2023-04-17T19:46:07.518Z,130.68
2023-04-17T19:48:36.304Z,119.88
2023-04-17T19:51:06.782Z,111.28
2023-04-17T19:53:36.747Z,110.47
2023-04-17T19:56:08.342Z,123.22
2023-04-17T19:58:38.096Z,124.80
2023-04-17T20:01:06.568Z,201.75
2023-04-17T20:03:35.034Z,169.73
2023-04-17T20:06:06.596Z,152.65
2023-04-17T20:08:35.118Z,132.43
2023-04-17T20:11:03.359Z,129.07
2023-04-17T20:13:31.621Z,130.48
2023-04-17T20:16:00.030Z,130.25
2023-04-17T20:18:28.510Z,109.80
2023-04-17T20:20:56.794Z,94.15
2023-04-17T20:23:27.592Z,75.63
2023-04-17T20:25:56.076Z,77.43
2023-04-17T20:28:24.203Z,100.78
2023-04-17T20:30:52.442Z,114.75
2023-04-17T20:33:20.840Z,132.95
2023-04-17T20:35:49.247Z,153.35
2023-04-17T20:38:17.387Z,176.40
2023-04-17T20:40:45.690Z,139.20
2023-04-17T20:43:13.859Z,144.73
2023-04-17T20:45:42.015Z,124.63
2023-04-17T20:48:10.305Z,115.43
2023-04-17T20:50:38.598Z,117.72
2023-04-17T20:53:06.669Z,101.32
2023-04-17T20:55:36.776Z,73.25
2023-04-17T20:58:05.155Z,88.10
2023-04-17T21:00:33.813Z,104.53
2023-04-17T21:03:02.779Z,107.82
2023-04-17T21:05:31.228Z,94.45
2023-04-17T21:07:59.440Z,90.97
2023-04-17T21:10:27.687Z,85.15
2023-04-17T21:12:55.898Z,84.43
2023-04-17T21:15:24.309Z,77.03
2023-04-17T21:17:52.562Z,92.18
2023-04-17T21:20:20.926Z,107.82
2023-04-17T21:22:49.606Z,116.68
2023-04-17T21:25:17.996Z,81.63
2023-04-17T21:27:46.214Z,81.70
2023-04-17T21:30:14.705Z,89.03
2023-04-17T21:32:43.172Z,106.47
2023-04-17T21:35:11.280Z,114.80
2023-04-17T21:37:39.544Z,100.30
2023-04-17T21:40:08.486Z,85.35
2023-04-17T21:42:36.752Z,77.55
2023-04-17T21:45:05.286Z,78.78
2023-04-17T21:47:34.151Z,67.43
2023-04-17T21:50:02.367Z,93.60
2023-04-17T21:52:30.552Z,109.10
2023-04-17T21:54:58.740Z,93.35
2023-04-17T21:57:27.023Z,83.65
2023-04-17T21:59:55.225Z,96.30
2023-04-17T22:02:23.561Z,120.18
2023-04-17T22:04:52.310Z,90.72
2023-04-17T22:07:20.622Z,88.63
2023-04-17T22:09:49.170Z,91.18
2023-04-17T22:12:17.990Z,87.40
2023-04-17T22:14:46.215Z,74.10
2023-04-17T22:17:14.891Z,87.75
2023-04-17T22:19:43.608Z,72.50
2023-04-17T22:22:11.947Z,59.08
2023-04-17T22:24:41.501Z,59.22
2023-04-17T22:27:10.081Z,83.18
2023-04-17T22:29:38.176Z,87.38
2023-04-17T22:32:06.523Z,86.43
2023-04-17T22:34:34.750Z,81.03
2023-04-17T22:37:03.202Z,61.35
2023-04-17T22:39:31.260Z,56.95
2023-04-17T22:41:59.634Z,58.97
2023-04-17T22:44:27.722Z,55.00
2023-04-17T22:46:56.096Z,61.95
2023-04-17T22:49:24.376Z,59.80
2023-04-17T22:51:53.289Z,61.50
2023-04-17T22:54:23.127Z,61.30
2023-04-17T22:56:51.943Z,60.15
2023-04-17T22:59:20.107Z,57.65
2023-04-17T23:01:48.363Z,67.57
2023-04-17T23:04:16.615Z,76.43
2023-04-17T23:06:44.962Z,76.72
2023-04-17T23:09:13.117Z,67.97
2023-04-17T23:11:41.605Z,74.00
2023-04-17T23:14:09.650Z,86.32
2023-04-17T23:16:37.959Z,96.63
2023-04-17T23:19:06.129Z,104.32
2023-04-17T23:21:36.544Z,92.68
2023-04-17T23:24:04.913Z,80.35
2023-04-17T23:26:33.063Z,72.38
2023-04-17T23:29:01.236Z,96.82
2023-04-17T23:31:29.356Z,88.80
2023-04-17T23:33:57.766Z,106.07
2023-04-17T23:36:25.803Z,145.45
2023-04-17T23:38:54.000Z,153.65
2023-04-17T23:41:22.268Z,144.32
2023-04-17T23:43:50.545Z,140.75
2023-04-17T23:46:18.635Z,133.32
2023-04-17T23:48:46.943Z,129.60
2023-04-17T23:51:15.013Z,140.27
2023-04-17T23:53:43.401Z,140.77
2023-04-17T23:56:11.552Z,136.18
2023-04-17T23:58:39.777Z,144.23
